createdAt,value
2018-02-21T00:00:15.818Z,82.00
2018-02-21T00:01:15.760Z,85.20
2018-02-21T00:02:15.719Z,86.40
2018-02-21T00:03:15.672Z,89.90
2018-02-21T00:04:15.655Z,86.30
2018-02-21T00:05:15.581Z,87.20
2018-02-21T00:06:15.542Z,83.20
2018-02-21T00:07:15.496Z,84.70
2018-02-21T00:08:15.453Z,87.80
2018-02-21T00:09:15.392Z,87.50
2018-02-21T00:10:15.374Z,86.60
2018-02-21T00:11:15.298Z,83.80
2018-02-21T00:12:15.251Z,82.30
2018-02-21T00:13:15.213Z,86.60
2018-02-21T00:14:15.164Z,84.40
2018-02-21T00:15:15.142Z,85.60
2018-02-21T00:16:15.074Z,85.70
2018-02-21T00:17:15.019Z,85.00
2018-02-21T00:18:14.974Z,83.30
2018-02-21T00:19:14.934Z,89.10
2018-02-21T00:20:14.912Z,87.60
2018-02-21T00:21:14.844Z,89.00
2018-02-21T00:22:14.784Z,86.70
2018-02-21T00:23:14.738Z,83.40
2018-02-21T00:24:14.695Z,86.70
2018-02-21T00:25:14.673Z,90.50
2018-02-21T00:26:14.609Z,89.30
2018-02-21T00:27:14.558Z,92.20
2018-02-21T00:28:14.515Z,86.40
2018-02-21T00:29:14.465Z,87.50
2018-02-21T00:30:14.440Z,83.90
2018-02-21T00:31:14.375Z,83.80
2018-02-21T00:32:14.324Z,89.30
2018-02-21T00:33:14.281Z,87.60
2018-02-21T00:34:14.235Z,85.30
2018-02-21T00:35:14.188Z,84.60
2018-02-21T00:36:14.175Z,85.40
2018-02-21T00:37:14.104Z,87.60
2018-02-21T00:38:14.048Z,84.20
2018-02-21T00:39:14.004Z,89.50
2018-02-21T00:40:13.959Z,86.90
2018-02-21T00:41:13.930Z,84.00
2018-02-21T00:42:13.858Z,83.80
2018-02-21T00:43:13.814Z,83.90
2018-02-21T00:44:13.768Z,84.50
2018-02-21T00:45:13.716Z,84.40
2018-02-21T00:46:13.696Z,85.30
2018-02-21T00:47:13.630Z,81.80
2018-02-21T00:48:13.575Z,85.60
2018-02-21T00:49:13.541Z,85.60
2018-02-21T00:50:13.491Z,84.00
2018-02-21T00:51:13.478Z,81.50
2018-02-21T00:52:13.391Z,84.60
2018-02-21T00:53:13.351Z,83.60
2018-02-21T00:54:13.297Z,84.80
2018-02-21T00:55:13.258Z,81.80
2018-02-21T00:56:13.242Z,85.50
2018-02-21T00:57:13.167Z,85.40
2018-02-21T00:58:13.114Z,84.20
2018-02-21T00:59:13.067Z,85.50
2018-02-21T01:00:13.017Z,83.30
2018-02-21T01:01:12.973Z,81.50
2018-02-21T01:02:12.951Z,84.90
2018-02-21T01:03:12.884Z,85.30
2018-02-21T01:04:12.835Z,80.10
2018-02-21T01:05:12.789Z,82.50
2018-02-21T01:06:12.742Z,84.40
2018-02-21T01:07:12.718Z,83.80
2018-02-21T01:08:12.652Z,86.10
2018-02-21T01:09:12.615Z,80.90
2018-02-21T01:10:12.557Z,89.60
2018-02-21T01:11:12.515Z,85.00
2018-02-21T01:12:12.487Z,87.80
2018-02-21T01:13:12.408Z,88.10
2018-02-21T01:14:12.374Z,83.40
2018-02-21T01:15:12.320Z,85.00
2018-02-21T01:16:12.274Z,87.50
2018-02-21T01:17:12.263Z,89.40
2018-02-21T01:18:12.185Z,84.70
2018-02-21T01:19:12.144Z,85.40
2018-02-21T01:20:12.083Z,83.20
2018-02-21T01:21:12.035Z,87.70
2018-02-21T01:22:12.000Z,86.80
2018-02-21T01:23:11.977Z,84.80
2018-02-21T01:24:11.897Z,86.50
2018-02-21T01:25:11.856Z,83.60
2018-02-21T01:26:11.808Z,83.90
2018-02-21T01:27:11.760Z,84.70
2018-02-21T01:28:11.733Z,85.80
2018-02-21T01:29:11.673Z,85.70
2018-02-21T01:30:11.628Z,87.20
2018-02-21T01:31:11.587Z,83.60
2018-02-21T01:32:11.537Z,84.20
2018-02-21T01:33:11.501Z,87.00
2018-02-21T01:34:11.437Z,86.00
2018-02-21T01:35:11.393Z,85.30
2018-02-21T01:36:11.344Z,80.80
2018-02-21T01:37:11.297Z,83.50
2018-02-21T01:38:11.273Z,84.40
2018-02-21T01:39:11.205Z,84.10
2018-02-21T01:40:11.152Z,87.30
2018-02-21T01:41:11.114Z,86.00
2018-02-21T01:42:11.059Z,81.00
2018-02-21T01:43:11.045Z,83.80
2018-02-21T01:44:10.975Z,81.90
2018-02-21T01:45:10.924Z,80.90
2018-02-21T01:46:10.880Z,82.10
2018-02-21T01:47:10.824Z,81.90
2018-02-21T01:48:10.802Z,82.10
2018-02-21T01:49:10.739Z,80.50
2018-02-21T01:50:10.686Z,78.80
2018-02-21T01:51:10.644Z,81.50
2018-02-21T01:52:10.593Z,83.80
2018-02-21T01:53:10.585Z,81.30
2018-02-21T01:54:10.523Z,82.50
2018-02-21T01:55:10.462Z,78.40
2018-02-21T01:56:10.406Z,78.90
2018-02-21T01:57:10.371Z,78.70
2018-02-21T01:58:10.320Z,79.80
2018-02-21T01:59:10.294Z,77.70
2018-02-21T02:00:10.233Z,79.60
2018-02-21T02:01:10.175Z,78.80
2018-02-21T02:02:10.126Z,78.60
2018-02-21T02:03:10.076Z,78.40
2018-02-21T02:04:10.062Z,83.90
2018-02-21T02:05:09.992Z,83.00
2018-02-21T02:06:09.938Z,80.90
2018-02-21T02:07:09.893Z,78.00
2018-02-21T02:08:09.850Z,78.90
2018-02-21T02:09:09.832Z,76.30
2018-02-21T02:10:09.754Z,76.50
2018-02-21T02:11:09.708Z,77.60
2018-02-21T02:12:09.664Z,77.50
2018-02-21T02:13:09.613Z,73.50
2018-02-21T02:14:09.594Z,75.70
2018-02-21T02:15:09.526Z,74.00
2018-02-21T02:16:09.484Z,76.60
2018-02-21T02:17:09.435Z,77.30
2018-02-21T02:18:09.386Z,71.30
2018-02-21T02:19:09.379Z,76.70
2018-02-21T02:20:09.291Z,73.90
2018-02-21T02:21:09.248Z,74.90
2018-02-21T02:22:09.207Z,75.80
2018-02-21T02:23:09.161Z,75.80
2018-02-21T02:24:09.102Z,73.10
2018-02-21T02:25:09.076Z,74.10
2018-02-21T02:26:09.006Z,72.70
2018-02-21T02:27:08.966Z,76.10
2018-02-21T02:28:08.915Z,76.20
2018-02-21T02:29:08.873Z,74.10
2018-02-21T02:30:08.840Z,76.80
2018-02-21T02:31:08.772Z,72.30
2018-02-21T02:32:08.729Z,78.50
2018-02-21T02:33:08.683Z,78.90
2018-02-21T02:34:08.633Z,77.40
2018-02-21T02:35:08.632Z,75.30
2018-02-21T02:36:08.549Z,75.20
2018-02-21T02:37:08.506Z,76.70
2018-02-21T02:38:08.462Z,79.10
2018-02-21T02:39:08.411Z,75.00
2018-02-21T02:40:08.385Z,80.80
2018-02-21T02:41:08.308Z,77.70
2018-02-21T02:42:08.263Z,80.00
2018-02-21T02:43:08.213Z,78.90
2018-02-21T02:44:08.167Z,81.00
2018-02-21T02:45:08.148Z,80.50
2018-02-21T02:46:08.079Z,79.40
2018-02-21T02:47:08.046Z,77.40
2018-02-21T02:48:07.990Z,80.10
2018-02-21T02:49:07.945Z,79.60
2018-02-21T02:50:07.895Z,78.80
2018-02-21T02:51:07.863Z,77.10
2018-02-21T02:52:07.801Z,74.00
2018-02-21T02:53:07.755Z,76.90
2018-02-21T02:54:07.712Z,74.70
2018-02-21T02:55:07.657Z,79.50
2018-02-21T02:56:07.637Z,77.80
2018-02-21T02:57:07.560Z,74.50
2018-02-21T02:58:07.516Z,75.10
2018-02-21T02:59:07.472Z,76.10
2018-02-21T03:00:07.426Z,72.40
2018-02-21T03:01:07.400Z,76.50
2018-02-21T03:02:07.344Z,74.50
2018-02-21T03:03:07.285Z,71.90
2018-02-21T03:04:07.242Z,74.50
2018-02-21T03:05:07.189Z,76.50
2018-02-21T03:06:07.171Z,70.70
2018-02-21T03:07:07.093Z,71.80
2018-02-21T03:08:07.054Z,70.40
2018-02-21T03:09:07.019Z,69.90
2018-02-21T03:10:06.959Z,74.00
2018-02-21T03:11:06.950Z,70.90
2018-02-21T03:12:06.865Z,70.20
2018-02-21T03:13:06.836Z,71.20
2018-02-21T03:14:06.769Z,72.10
2018-02-21T03:15:06.730Z,73.60
2018-02-21T03:16:06.682Z,73.20
2018-02-21T03:17:06.653Z,76.70
2018-02-21T03:18:06.589Z,73.10
2018-02-21T03:19:06.545Z,76.70
2018-02-21T03:20:06.499Z,75.20
2018-02-21T03:21:06.446Z,72.90
2018-02-21T03:22:06.430Z,73.30
2018-02-21T03:23:06.360Z,75.30
2018-02-21T03:24:06.306Z,74.20
2018-02-21T03:25:06.275Z,77.90
2018-02-21T03:26:06.220Z,72.80
2018-02-21T03:27:06.197Z,72.50
2018-02-21T03:28:06.126Z,72.00
2018-02-21T03:29:06.079Z,74.80
2018-02-21T03:30:06.031Z,74.70
2018-02-21T03:31:05.992Z,74.40
2018-02-21T03:32:05.973Z,77.50
2018-02-21T03:33:05.897Z,75.70
2018-02-21T03:34:05.855Z,75.70
2018-02-21T03:35:05.802Z,73.80
2018-02-21T03:36:05.761Z,76.40
2018-02-21T03:37:05.716Z,78.90
2018-02-21T03:38:05.685Z,75.90
2018-02-21T03:39:05.619Z,78.10
2018-02-21T03:40:05.586Z,76.70
2018-02-21T03:41:05.534Z,74.70
2018-02-21T03:42:05.479Z,75.40
2018-02-21T03:43:05.464Z,76.30
2018-02-21T03:44:05.390Z,75.50
2018-02-21T03:45:05.350Z,78.10
2018-02-21T03:46:05.296Z,78.90
2018-02-21T03:47:05.267Z,79.30
2018-02-21T03:48:05.242Z,81.40
2018-02-21T03:49:05.167Z,78.90
2018-02-21T03:50:05.119Z,80.60
2018-02-21T03:51:05.081Z,79.70
2018-02-21T03:52:05.028Z,82.40
2018-02-21T03:53:04.999Z,81.40
2018-02-21T03:54:04.927Z,81.30
2018-02-21T03:55:04.889Z,77.80
2018-02-21T03:56:04.838Z,80.40
2018-02-21T03:57:04.800Z,82.90
2018-02-21T03:58:04.783Z,81.50
2018-02-21T03:59:04.707Z,85.00
2018-02-21T04:00:04.663Z,80.30
2018-02-21T04:01:04.605Z,83.20
2018-02-21T04:02:04.568Z,86.30
2018-02-21T04:03:04.519Z,84.40
2018-02-21T04:04:04.502Z,82.60
2018-02-21T04:05:04.432Z,84.90
2018-02-21T04:06:04.387Z,86.70
2018-02-21T04:07:04.336Z,82.40
2018-02-21T04:08:04.292Z,84.00
2018-02-21T04:09:04.288Z,83.60
2018-02-21T04:10:04.203Z,88.10
2018-02-21T04:11:04.163Z,82.80
2018-02-21T04:12:04.115Z,85.40
2018-02-21T04:13:04.061Z,85.70
2018-02-21T04:14:04.049Z,89.20
2018-02-21T04:15:03.972Z,84.30
2018-02-21T04:16:03.935Z,87.10
2018-02-21T04:17:03.879Z,85.90
2018-02-21T04:18:03.838Z,85.10
2018-02-21T04:19:03.814Z,85.90
2018-02-21T04:20:03.750Z,86.80
2018-02-21T04:21:03.702Z,85.80
2018-02-21T04:22:03.655Z,86.20
2018-02-21T04:23:03.612Z,85.60
2018-02-21T04:24:03.591Z,84.30
2018-02-21T04:25:03.539Z,88.90
2018-02-21T04:26:03.468Z,88.70
2018-02-21T04:27:03.420Z,88.90
2018-02-21T04:28:03.379Z,89.60
2018-02-21T04:29:03.332Z,89.60
2018-02-21T04:30:03.318Z,91.60
2018-02-21T04:31:03.240Z,89.60
2018-02-21T04:32:03.209Z,93.80
2018-02-21T04:33:03.156Z,88.10
2018-02-21T04:34:03.110Z,93.20
2018-02-21T04:35:03.081Z,92.60
2018-02-21T04:36:03.020Z,90.40
2018-02-21T04:37:02.968Z,97.40
2018-02-21T04:38:02.929Z,93.60
2018-02-21T04:39:02.884Z,98.60
2018-02-21T04:40:02.863Z,92.70
2018-02-21T04:41:02.788Z,95.00
2018-02-21T04:42:02.757Z,96.50
2018-02-21T04:43:02.699Z,97.00
2018-02-21T04:44:02.655Z,92.90
2018-02-21T04:45:02.634Z,92.70
2018-02-21T04:46:02.565Z,91.00
2018-02-21T04:47:02.520Z,95.20
2018-02-21T04:48:02.476Z,96.20
2018-02-21T04:49:02.430Z,93.60
2018-02-21T04:50:02.379Z,94.10
2018-02-21T04:51:02.364Z,94.60
2018-02-21T04:52:02.284Z,96.60
2018-02-21T04:53:02.261Z,95.20
2018-02-21T04:54:02.197Z,94.60
2018-02-21T04:55:02.163Z,98.60
2018-02-21T04:56:02.142Z,94.10
2018-02-21T04:57:02.065Z,92.50
2018-02-21T04:58:02.011Z,96.20
2018-02-21T04:59:01.974Z,97.70
2018-02-21T05:00:01.922Z,96.30
2018-02-21T05:01:01.909Z,93.80
2018-02-21T05:02:01.843Z,93.60
2018-02-21T05:03:01.789Z,95.00
2018-02-21T05:04:01.742Z,94.00
2018-02-21T05:05:01.698Z,95.40
2018-02-21T05:06:01.674Z,94.30
2018-02-21T05:07:01.614Z,94.70
2018-02-21T05:08:01.568Z,95.40
2018-02-21T05:09:01.517Z,95.70
2018-02-21T05:10:01.477Z,95.80
2018-02-21T05:11:01.454Z,97.40
2018-02-21T05:12:01.394Z,98.30
2018-02-21T05:13:01.337Z,95.20
2018-02-21T05:14:01.294Z,95.40
2018-02-21T05:15:01.258Z,99.10
2018-02-21T05:16:01.228Z,96.20
2018-02-21T05:17:01.159Z,92.60
2018-02-21T05:18:01.117Z,93.10
2018-02-21T05:19:01.066Z,94.90
2018-02-21T05:20:01.029Z,94.10
2018-02-21T05:21:00.975Z,94.30
2018-02-21T05:22:00.959Z,97.30
2018-02-21T05:23:00.885Z,94.50
2018-02-21T05:24:00.881Z,98.70
2018-02-21T05:25:00.801Z,93.50
2018-02-21T05:26:00.752Z,90.60
2018-02-21T05:27:00.736Z,97.30
2018-02-21T05:28:00.660Z,91.60
2018-02-21T05:29:00.613Z,96.40
2018-02-21T05:30:00.565Z,101.90
2018-02-21T05:31:00.518Z,94.10
2018-02-21T05:32:00.500Z,94.40
2018-02-21T05:33:00.431Z,93.90
2018-02-21T05:34:00.388Z,97.60
2018-02-21T05:35:00.345Z,96.90
2018-02-21T05:36:00.302Z,96.30
2018-02-21T05:37:00.282Z,94.60
2018-02-21T05:38:00.211Z,94.20
2018-02-21T05:39:00.158Z,93.90
2018-02-21T05:40:00.119Z,96.90
2018-02-21T05:41:00.072Z,98.00
2018-02-21T05:42:00.063Z,93.80
2018-02-21T05:42:59.986Z,96.70
2018-02-21T05:43:59.934Z,99.70
2018-02-21T05:44:59.887Z,99.20
2018-02-21T05:45:59.878Z,97.40
2018-02-21T05:46:59.803Z,99.20
2018-02-21T05:47:59.777Z,93.80
2018-02-21T05:48:59.716Z,97.40
2018-02-21T05:49:59.669Z,96.90
2018-02-21T05:50:59.624Z,98.60
2018-02-21T05:51:59.582Z,97.10
2018-02-21T05:52:59.554Z,95.10
2018-02-21T05:53:59.484Z,99.60
2018-02-21T05:54:59.436Z,102.20
2018-02-21T05:55:59.402Z,98.10
2018-02-21T05:56:59.351Z,102.30
2018-02-21T05:57:59.331Z,103.30
2018-02-21T05:58:59.258Z,97.70
2018-02-21T05:59:59.217Z,103.00
2018-02-21T06:00:59.176Z,102.70
2018-02-21T06:01:59.128Z,100.00
2018-02-21T06:02:59.111Z,99.50
2018-02-21T06:03:59.046Z,98.80
2018-02-21T06:04:58.994Z,101.40
2018-02-21T06:05:58.953Z,103.30
2018-02-21T06:06:58.899Z,105.60
2018-02-21T06:07:58.848Z,103.60
2018-02-21T06:08:58.828Z,101.80
2018-02-21T06:09:58.759Z,101.30
2018-02-21T06:10:58.727Z,108.90
2018-02-21T06:11:58.675Z,106.10
2018-02-21T06:12:58.635Z,104.30
2018-02-21T06:13:58.606Z,103.10
2018-02-21T06:14:58.537Z,105.60
2018-02-21T06:15:58.493Z,105.90
2018-02-21T06:16:58.450Z,106.00
2018-02-21T06:17:58.395Z,104.50
2018-02-21T06:18:58.374Z,109.30
2018-02-21T06:19:58.324Z,107.90
2018-02-21T06:20:58.269Z,102.70
2018-02-21T06:21:58.226Z,106.70
2018-02-21T06:22:58.172Z,108.00
2018-02-21T06:23:58.142Z,107.90
2018-02-21T06:24:58.081Z,110.20
2018-02-21T06:25:58.030Z,107.80
2018-02-21T06:26:57.988Z,113.40
2018-02-21T06:27:57.936Z,107.00
2018-02-21T06:28:57.935Z,105.50
2018-02-21T06:29:57.850Z,108.90
2018-02-21T06:30:57.807Z,108.70
2018-02-21T06:31:57.758Z,107.80
2018-02-21T06:32:57.712Z,111.70
2018-02-21T06:33:57.659Z,109.90
2018-02-21T06:34:57.632Z,111.50
2018-02-21T06:35:57.565Z,113.20
2018-02-21T06:36:57.524Z,113.50
2018-02-21T06:37:57.475Z,111.30
2018-02-21T06:38:57.436Z,112.60
2018-02-21T06:39:57.412Z,111.90
2018-02-21T06:40:57.339Z,114.10
2018-02-21T06:41:57.295Z,124.80
2018-02-21T06:42:57.245Z,113.90
2018-02-21T06:43:57.200Z,112.00
2018-02-21T06:44:57.183Z,106.90
2018-02-21T06:45:57.116Z,98.40
2018-02-21T06:46:57.064Z,99.50
2018-02-21T06:47:57.012Z,101.10
2018-02-21T06:48:56.965Z,102.50
2018-02-21T06:49:56.951Z,97.70
2018-02-21T06:50:56.881Z,100.10
2018-02-21T06:51:56.824Z,99.00
2018-02-21T06:52:56.794Z,95.90
2018-02-21T06:53:56.739Z,96.90
2018-02-21T06:54:56.718Z,99.60
2018-02-21T06:55:56.653Z,97.50
2018-02-21T06:56:56.609Z,101.00
2018-02-21T06:57:56.555Z,100.70
2018-02-21T06:58:56.498Z,100.20
2018-02-21T06:59:56.464Z,96.70
2018-02-21T07:00:56.442Z,102.40
2018-02-21T07:01:56.374Z,100.40
2018-02-21T07:02:56.325Z,100.20
2018-02-21T07:03:57.051Z,102.80
2018-02-21T07:04:56.229Z,104.50
2018-02-21T07:05:56.206Z,103.00
2018-02-21T07:06:56.143Z,102.00
2018-02-21T07:07:56.096Z,104.20
2018-02-21T07:08:56.044Z,97.70
2018-02-21T07:09:56.007Z,102.40
2018-02-21T07:10:55.986Z,98.00
2018-02-21T07:11:55.912Z,99.80
2018-02-21T07:12:55.866Z,99.20
2018-02-21T07:13:55.822Z,100.10
2018-02-21T07:14:55.772Z,102.80
2018-02-21T07:15:55.753Z,104.20
2018-02-21T07:16:55.691Z,99.30
2018-02-21T07:17:55.640Z,100.30
2018-02-21T07:18:55.602Z,98.10
2018-02-21T07:19:55.544Z,98.70
2018-02-21T07:20:55.507Z,98.00
2018-02-21T07:21:55.478Z,96.50
2018-02-21T07:22:55.420Z,98.60
2018-02-21T07:23:55.365Z,93.70
2018-02-21T07:24:55.324Z,97.10
2018-02-21T07:25:55.282Z,95.90
2018-02-21T07:26:55.273Z,102.00
2018-02-21T07:27:55.196Z,96.40
2018-02-21T07:28:55.144Z,99.10
2018-02-21T07:29:55.106Z,102.30
2018-02-21T07:30:55.108Z,107.00
2018-02-21T07:31:55.039Z,102.70
2018-02-21T07:32:54.983Z,99.70
2018-02-21T07:33:54.928Z,102.60
2018-02-21T07:34:54.882Z,101.20
2018-02-21T07:35:54.838Z,100.60
2018-02-21T07:36:54.838Z,100.00
2018-02-21T07:37:54.749Z,97.70
2018-02-21T07:38:54.711Z,102.70
2018-02-21T07:39:54.669Z,96.80
2018-02-21T07:40:54.627Z,101.60
2018-02-21T07:41:54.572Z,99.60
2018-02-21T07:42:54.564Z,97.00
2018-02-21T07:43:54.506Z,98.90
2018-02-21T07:44:54.451Z,101.20
2018-02-21T07:45:54.401Z,99.50
2018-02-21T07:46:54.357Z,98.80
2018-02-21T07:47:54.338Z,103.20
2018-02-21T07:48:54.289Z,100.20
2018-02-21T07:49:54.237Z,102.80
2018-02-21T07:50:54.197Z,99.60
2018-02-21T07:51:54.163Z,99.40
2018-02-21T07:52:54.147Z,101.60
2018-02-21T07:53:54.077Z,96.10
2018-02-21T07:54:54.030Z,99.40
2018-02-21T07:55:53.980Z,100.00
2018-02-21T07:56:53.940Z,99.50
2018-02-21T07:57:53.919Z,97.20
2018-02-21T07:58:53.863Z,93.30
2018-02-21T07:59:53.814Z,97.10
2018-02-21T08:00:53.805Z,101.50
2018-02-21T08:01:53.740Z,94.30
2018-02-21T08:02:53.723Z,95.30
2018-02-21T08:03:53.650Z,97.50
2018-02-21T08:04:53.611Z,97.60
2018-02-21T08:05:53.571Z,94.20
2018-02-21T08:06:53.538Z,96.10
2018-02-21T08:07:53.516Z,100.30
2018-02-21T08:08:53.448Z,94.30
2018-02-21T08:09:53.401Z,94.90
2018-02-21T08:10:53.360Z,96.50
2018-02-21T08:11:53.321Z,95.70
2018-02-21T08:12:53.286Z,97.40
2018-02-21T08:13:53.260Z,96.10
2018-02-21T08:14:53.213Z,94.90
2018-02-21T08:15:53.163Z,98.30
2018-02-21T08:16:53.124Z,94.90
2018-02-21T08:17:53.082Z,97.00
2018-02-21T08:18:53.061Z,93.50
2018-02-21T08:19:52.996Z,94.30
2018-02-21T08:20:52.960Z,96.70
2018-02-21T08:21:52.924Z,95.70
2018-02-21T08:22:52.875Z,93.90
2018-02-21T08:23:52.868Z,94.90
2018-02-21T08:24:52.806Z,95.20
2018-02-21T08:25:52.759Z,100.00
2018-02-21T08:26:52.721Z,96.60
2018-02-21T08:27:52.693Z,95.80
2018-02-21T08:28:52.680Z,96.10
2018-02-21T08:29:52.646Z,94.40
2018-02-21T08:30:52.565Z,96.10
2018-02-21T08:31:52.532Z,97.10
2018-02-21T08:32:52.488Z,96.30
2018-02-21T08:33:52.482Z,95.30
2018-02-21T08:34:52.404Z,93.60
2018-02-21T08:35:52.368Z,97.80
2018-02-21T08:36:52.339Z,96.90
2018-02-21T08:37:52.287Z,99.50
2018-02-21T08:38:52.248Z,97.50
2018-02-21T08:39:52.232Z,93.50
2018-02-21T08:40:52.180Z,97.30
2018-02-21T08:41:52.132Z,98.10
2018-02-21T08:42:52.108Z,94.10
2018-02-21T08:43:52.061Z,96.30
2018-02-21T08:44:52.041Z,95.70
2018-02-21T08:45:52.686Z,97.80
2018-02-21T08:46:51.990Z,95.70
2018-02-21T08:47:51.906Z,92.00
2018-02-21T08:48:51.866Z,95.40
2018-02-21T08:49:51.841Z,97.90
2018-02-21T08:50:51.782Z,93.50
2018-02-21T08:51:51.749Z,95.90
2018-02-21T08:52:51.711Z,94.30
2018-02-21T08:53:51.669Z,93.30
2018-02-21T08:54:51.658Z,100.00
2018-02-21T08:55:51.673Z,95.70
2018-02-21T08:56:51.564Z,91.10
2018-02-21T08:57:51.518Z,93.40
2018-02-21T08:58:51.492Z,96.40
2018-02-21T08:59:51.470Z,93.60
2018-02-21T09:00:51.401Z,92.60
2018-02-21T09:01:51.372Z,92.10
2018-02-21T09:02:51.342Z,91.80
2018-02-21T09:03:51.300Z,93.20
2018-02-21T09:04:51.262Z,94.00
2018-02-21T09:05:51.248Z,93.90
2018-02-21T09:06:51.188Z,98.70
2018-02-21T09:07:51.142Z,93.80
2018-02-21T09:08:51.103Z,91.40
2018-02-21T09:09:51.067Z,95.20
2018-02-21T09:10:51.074Z,91.80
2018-02-21T09:11:51.001Z,92.80
2018-02-21T09:12:50.966Z,93.60
2018-02-21T09:13:50.924Z,94.20
2018-02-21T09:14:50.889Z,92.40
2018-02-21T09:15:50.869Z,92.30
2018-02-21T09:16:50.808Z,87.50
2018-02-21T09:17:50.771Z,77.60
2018-02-21T09:18:50.735Z,91.40
2018-02-21T09:19:50.696Z,86.00
2018-02-21T09:20:50.688Z,91.50
2018-02-21T09:21:50.622Z,87.50
2018-02-21T09:22:50.585Z,90.90
2018-02-21T09:23:50.548Z,89.30
2018-02-21T09:24:50.513Z,90.50
2018-02-21T09:25:50.495Z,90.50
2018-02-21T09:26:50.431Z,88.70
2018-02-21T09:27:50.401Z,87.80
2018-02-21T09:28:50.367Z,84.60
2018-02-21T09:29:50.330Z,117.90
2018-02-21T09:30:50.287Z,90.40
2018-02-21T09:31:50.277Z,87.90
2018-02-21T09:32:50.216Z,84.20
2018-02-21T09:33:50.189Z,86.90
2018-02-21T09:34:50.147Z,83.60
2018-02-21T09:35:50.102Z,80.70
2018-02-21T09:36:50.090Z,81.70
2018-02-21T09:37:50.032Z,83.50
2018-02-21T09:38:49.998Z,82.40
2018-02-21T09:39:49.955Z,82.80
2018-02-21T09:40:49.924Z,81.80
2018-02-21T09:41:49.916Z,82.50
2018-02-21T09:42:49.852Z,81.10
2018-02-21T09:43:49.819Z,81.20
2018-02-21T09:44:49.782Z,78.90
2018-02-21T09:45:49.748Z,77.10
2018-02-21T09:46:49.728Z,79.60
2018-02-21T09:47:49.668Z,78.50
2018-02-21T09:48:49.632Z,75.80
2018-02-21T09:49:49.606Z,75.50
2018-02-21T09:50:49.560Z,74.90
2018-02-21T09:51:49.532Z,73.80
2018-02-21T09:52:49.513Z,72.70
2018-02-21T09:53:49.470Z,71.90
2018-02-21T09:54:49.422Z,67.80
2018-02-21T09:55:49.396Z,65.80
2018-02-21T09:56:49.360Z,63.90
2018-02-21T09:57:49.346Z,61.80
2018-02-21T09:58:49.290Z,61.80
2018-02-21T09:59:49.256Z,60.90
2018-02-21T10:00:49.208Z,59.90
2018-02-21T10:01:49.175Z,57.40
2018-02-21T10:02:49.166Z,61.00
2018-02-21T10:03:49.113Z,61.10
2018-02-21T10:04:49.084Z,56.60
2018-02-21T10:05:49.042Z,59.70
2018-02-21T10:06:49.008Z,56.70
2018-02-21T10:07:48.988Z,55.40
2018-02-21T10:08:48.934Z,55.50
2018-02-21T10:09:48.890Z,54.70
2018-02-21T10:10:48.863Z,55.60
2018-02-21T10:11:48.820Z,53.30
2018-02-21T10:12:48.820Z,53.30
2018-02-21T10:13:48.766Z,55.80
2018-02-21T10:14:48.711Z,52.20
2018-02-21T10:15:48.678Z,52.80
2018-02-21T10:16:49.046Z,51.20
2018-02-21T10:17:48.605Z,54.40
2018-02-21T10:18:48.602Z,51.40
2018-02-21T10:19:48.539Z,51.20
2018-02-21T10:20:48.497Z,50.90
2018-02-21T10:21:48.471Z,47.90
2018-02-21T10:22:48.434Z,48.00
2018-02-21T10:23:48.425Z,51.10
2018-02-21T10:24:48.359Z,50.10
2018-02-21T10:25:48.327Z,51.80
2018-02-21T10:26:48.295Z,50.10
2018-02-21T10:27:48.264Z,51.80
2018-02-21T10:28:48.236Z,49.10
2018-02-21T10:29:48.181Z,51.30
2018-02-21T10:30:48.142Z,50.00
2018-02-21T10:31:48.112Z,48.20
2018-02-21T10:32:48.089Z,47.30
2018-02-21T10:33:48.070Z,49.60
2018-02-21T10:34:47.996Z,50.90
2018-02-21T10:35:47.976Z,45.30
2018-02-21T10:36:47.933Z,51.40
2018-02-21T10:37:47.905Z,47.70
2018-02-21T10:38:47.869Z,47.70
2018-02-21T10:39:47.849Z,46.50
2018-02-21T10:40:47.787Z,48.40
2018-02-21T10:41:47.762Z,47.70
2018-02-21T10:42:47.734Z,48.20
2018-02-21T10:43:47.687Z,48.30
2018-02-21T10:44:47.684Z,47.80
2018-02-21T10:45:47.623Z,49.60
2018-02-21T10:46:47.586Z,47.50
2018-02-21T10:47:47.553Z,50.60
2018-02-21T10:48:47.517Z,49.90
2018-02-21T10:49:47.501Z,49.90
2018-02-21T10:50:47.444Z,47.30
2018-02-21T10:51:47.414Z,52.30
2018-02-21T10:52:47.375Z,51.80
2018-02-21T10:53:47.342Z,51.70
2018-02-21T10:54:47.333Z,51.50
2018-02-21T10:55:47.273Z,52.80
2018-02-21T10:56:47.246Z,53.40
2018-02-21T10:57:47.201Z,52.60
2018-02-21T10:58:47.165Z,51.20
2018-02-21T10:59:47.157Z,54.10
2018-02-21T11:00:47.101Z,53.70
2018-02-21T11:01:47.069Z,53.30
2018-02-21T11:02:47.029Z,53.20
2018-02-21T11:03:47.012Z,57.20
2018-02-21T11:04:46.961Z,52.60
2018-02-21T11:05:46.951Z,52.90
2018-02-21T11:06:46.898Z,50.90
2018-02-21T11:07:46.864Z,54.90
2018-02-21T11:08:46.828Z,52.60
2018-02-21T11:09:46.794Z,54.60
2018-02-21T11:10:46.781Z,53.40
2018-02-21T11:11:46.730Z,52.50
2018-02-21T11:12:46.688Z,54.00
2018-02-21T11:13:46.647Z,53.90
2018-02-21T11:14:46.616Z,55.60
2018-02-21T11:15:46.615Z,54.30
2018-02-21T11:16:46.556Z,52.80
2018-02-21T11:17:46.519Z,56.60
2018-02-21T11:18:46.486Z,52.10
2018-02-21T11:19:46.448Z,53.30
2018-02-21T11:20:46.435Z,54.30
2018-02-21T11:21:46.375Z,50.50
2018-02-21T11:22:46.339Z,52.30
2018-02-21T11:23:46.304Z,50.40
2018-02-21T11:24:46.277Z,49.60
2018-02-21T11:25:46.262Z,50.70
2018-02-21T11:26:46.207Z,52.00
2018-02-21T11:27:46.183Z,50.20
2018-02-21T11:28:46.139Z,51.40
2018-02-21T11:29:46.105Z,50.90
2018-02-21T11:30:46.099Z,50.40
2018-02-21T11:31:46.052Z,51.50
2018-02-21T11:32:46.001Z,51.00
2018-02-21T11:33:45.958Z,51.40
2018-02-21T11:34:45.928Z,50.00
2018-02-21T11:35:45.902Z,51.10
2018-02-21T11:36:45.917Z,49.50
2018-02-21T11:37:45.861Z,49.90
2018-02-21T11:38:45.789Z,49.60
2018-02-21T11:39:45.781Z,48.40
2018-02-21T11:40:45.738Z,47.70
2018-02-21T11:41:45.714Z,46.40
2018-02-21T11:42:45.663Z,46.90
2018-02-21T11:43:45.614Z,49.10
2018-02-21T11:44:45.577Z,46.60
2018-02-21T11:45:45.545Z,45.50
2018-02-21T11:46:45.537Z,47.40
2018-02-21T11:47:45.476Z,47.50
2018-02-21T11:48:45.462Z,46.10
2018-02-21T11:49:45.402Z,49.20
2018-02-21T11:50:45.366Z,48.00
2018-02-21T11:51:45.329Z,47.80
2018-02-21T11:52:45.325Z,47.20
2018-02-21T11:53:45.257Z,45.80
2018-02-21T11:54:45.236Z,45.10
2018-02-21T11:55:45.197Z,45.30
2018-02-21T11:56:45.163Z,43.20
2018-02-21T11:57:45.152Z,44.30
2018-02-21T11:58:45.085Z,43.90
2018-02-21T11:59:45.053Z,45.80
2018-02-21T12:00:45.015Z,44.90
2018-02-21T12:01:44.983Z,43.10
2018-02-21T12:02:44.973Z,43.50
2018-02-21T12:03:44.919Z,42.90
2018-02-21T12:04:44.881Z,42.40
2018-02-21T12:05:44.851Z,43.20
2018-02-21T12:06:44.808Z,41.90
2018-02-21T12:07:44.791Z,41.40
2018-02-21T12:08:44.730Z,41.00
2018-02-21T12:09:44.710Z,41.60
2018-02-21T12:10:44.679Z,40.60
2018-02-21T12:11:44.624Z,41.30
2018-02-21T12:12:44.650Z,43.30
2018-02-21T12:13:44.591Z,42.90
2018-02-21T12:14:44.539Z,41.10
2018-02-21T12:15:44.490Z,41.10
2018-02-21T12:16:44.454Z,40.90
2018-02-21T12:17:44.410Z,41.20
2018-02-21T12:18:44.397Z,40.50
2018-02-21T12:19:44.348Z,40.70
2018-02-21T12:20:44.307Z,41.50
2018-02-21T12:21:44.264Z,41.80
2018-02-21T12:22:44.242Z,42.80
2018-02-21T12:23:44.228Z,42.90
2018-02-21T12:24:44.166Z,40.40
2018-02-21T12:25:44.141Z,43.00
2018-02-21T12:26:44.113Z,42.20
2018-02-21T12:27:44.051Z,41.40
2018-02-21T12:28:44.041Z,41.20
2018-02-21T12:29:43.978Z,40.00
2018-02-21T12:30:43.947Z,43.50
2018-02-21T12:31:43.909Z,42.80
2018-02-21T12:32:43.881Z,40.80
2018-02-21T12:33:43.861Z,41.80
2018-02-21T12:34:43.803Z,45.10
2018-02-21T12:35:43.760Z,42.80
2018-02-21T12:36:43.731Z,45.60
2018-02-21T12:37:43.695Z,43.50
2018-02-21T12:38:43.665Z,45.80
2018-02-21T12:39:43.644Z,44.50
2018-02-21T12:40:43.596Z,45.90
2018-02-21T12:41:43.545Z,44.60
2018-02-21T12:42:43.510Z,46.00
2018-02-21T12:43:43.476Z,48.00
2018-02-21T12:44:43.473Z,44.80
2018-02-21T12:45:43.400Z,43.90
2018-02-21T12:46:43.363Z,43.70
2018-02-21T12:47:43.335Z,40.70
2018-02-21T12:48:43.298Z,42.80